Time;durP1;ratioP1;P1;durP2;ratioP2;P2;SDS_P1;SDS_P2;PMS_P1;PMS_P2;Temp;Humidity;BMP_temperature;BMP_pressure;BME280_temperature;BME280_humidity;BME280_pressure;Samples;Min_cycle;Max_cycle;Signal;HPM_P1;HPM_P2
2021/11/29 00:01:37;;;;;;;2.65;0.68;;;17.80;45.00;;;;;;5073001;28;20132;-76
2021/11/29 00:04:03;;;;;;;3.88;0.50;;;17.80;45.00;;;;;;5072944;28;20170;-77
2021/11/29 00:06:28;;;;;;;1.17;0.60;;;17.80;45.10;;;;;;5079356;28;20127;-76
2021/11/29 00:08:54;;;;;;;1.85;0.50;;;17.70;45.10;;;;;;5071743;28;20040;-77
2021/11/29 00:11:20;;;;;;;4.80;0.98;;;17.80;45.10;;;;;;5096193;28;20399;-76
2021/11/29 00:13:46;;;;;;;2.08;0.60;;;17.80;45.20;;;;;;5101914;28;20044;-76
2021/11/29 00:16:12;;;;;;;6.88;1.00;;;17.80;45.10;;;;;;5068638;28;20123;-76
2021/11/29 00:18:38;;;;;;;1.40;0.95;;;17.70;45.00;;;;;;5068843;28;20174;-76
2021/11/29 00:21:04;;;;;;;4.60;0.40;;;17.70;45.10;;;;;;5069122;28;20149;-77
2021/11/29 00:23:31;;;;;;;2.20;0.85;;;17.60;45.10;;;;;;5073485;28;20044;-76
2021/11/29 00:25:57;;;;;;;4.30;0.80;;;17.70;45.20;;;;;;5068067;28;20052;-77
2021/11/29 00:28:23;;;;;;;3.38;0.82;;;17.70;45.00;;;;;;5082189;28;20049;-77
2021/11/29 00:30:49;;;;;;;3.58;0.60;;;17.70;45.00;;;;;;5073325;28;20436;-77
2021/11/29 00:33:15;;;;;;;3.78;0.65;;;17.70;45.00;;;;;;5093987;28;20119;-77
2021/11/29 00:35:41;;;;;;;2.15;0.60;;;17.70;44.80;;;;;;5089069;28;20133;-77
2021/11/29 00:38:09;;;;;;;3.30;0.82;;;17.60;45.00;;;;;;5090196;28;20088;-77
2021/11/29 00:40:38;;;;;;;3.47;1.25;;;17.60;45.00;;;;;;5052333;28;20118;-77
2021/11/29 00:43:05;;;;;;;1.30;0.60;;;17.60;44.90;;;;;;5081760;28;20044;-76
2021/11/29 00:45:30;;;;;;;3.42;0.82;;;17.50;45.00;;;;;;5068437;28;20056;-76
2021/11/29 00:47:56;;;;;;;3.05;0.57;;;17.50;45.10;;;;;;5084714;28;20090;-76
2021/11/29 00:50:22;;;;;;;3.83;1.73;;;17.50;45.00;;;;;;5069710;28;20072;-76
2021/11/29 00:52:48;;;;;;;2.92;0.68;;;17.50;45.00;;;;;;5084811;28;20058;-76
2021/11/29 00:55:15;;;;;;;1.52;0.57;;;17.40;45.10;;;;;;5069169;28;20116;-76
2021/11/29 00:57:41;;;;;;;3.13;0.90;;;17.40;45.10;;;;;;5068387;28;20094;-76
2021/11/29 01:00:16;;;;;;;11.90;0.50;;;17.40;46.20;;;;;;5068807;28;20045;-76
2021/11/29 01:02:42;;;;;;;2.33;0.50;;;17.40;45.20;;;;;;5072629;28;20036;-76
2021/11/29 01:05:08;;;;;;;1.45;0.65;;;17.50;45.00;;;;;;5085037;28;20114;-76
2021/11/29 01:07:34;;;;;;;4.93;0.40;;;17.40;44.80;;;;;;5063820;28;20047;-76
2021/11/29 01:09:59;;;;;;;2.17;0.50;;;17.30;44.90;;;;;;5071471;28;20041;-76
2021/11/29 01:12:25;;;;;;;1.77;0.40;;;17.30;45.00;;;;;;5073252;28;20052;-76
2021/11/29 01:14:52;;;;;;;1.00;0.50;;;17.30;45.10;;;;;;5105491;28;20033;-76
2021/11/29 01:17:18;;;;;;;3.10;0.70;;;17.30;44.90;;;;;;5052077;28;20052;-76
2021/11/29 01:19:44;;;;;;;0.80;0.40;;;17.20;45.00;;;;;;5088851;28;20048;-76
2021/11/29 01:22:09;;;;;;;1.10;0.38;;;17.20;44.80;;;;;;5071449;28;20076;-77
2021/11/29 01:24:35;;;;;;;1.63;0.40;;;17.20;44.60;;;;;;5105855;28;20533;-76
2021/11/29 01:27:01;;;;;;;2.05;0.40;;;17.30;44.50;;;;;;5105682;28;20055;-77
2021/11/29 01:29:27;;;;;;;1.00;0.60;;;17.30;44.40;;;;;;5071903;28;20056;-76
2021/11/29 01:31:52;;;;;;;1.75;0.50;;;17.20;44.30;;;;;;5070737;28;20623;-77
2021/11/29 01:34:18;;;;;;;1.02;0.55;;;17.20;44.20;;;;;;5106757;27;20476;-77
2021/11/29 01:36:44;;;;;;;2.67;0.40;;;17.30;44.00;;;;;;5058564;28;20129;-76
2021/11/29 01:39:10;;;;;;;1.73;0.40;;;17.30;44.00;;;;;;5070813;28;20056;-76
2021/11/29 01:41:36;;;;;;;1.27;0.40;;;17.20;43.90;;;;;;5071553;28;20048;-76
2021/11/29 01:44:03;;;;;;;1.25;0.50;;;17.30;43.80;;;;;;5071513;28;20132;-76
2021/11/29 01:46:28;;;;;;;2.00;0.30;;;17.30;43.80;;;;;;5055606;28;20048;-76
2021/11/29 01:48:55;;;;;;;1.17;0.40;;;17.20;43.50;;;;;;5072029;28;20097;-76
2021/11/29 01:51:21;;;;;;;0.40;0.40;;;17.20;43.60;;;;;;5071321;28;20507;-76
2021/11/29 01:53:47;;;;;;;3.33;0.30;;;17.20;43.50;;;;;;5105168;28;20492;-76
2021/11/29 01:56:13;;;;;;;0.73;0.57;;;17.20;43.60;;;;;;5072101;28;20044;-76
2021/11/29 01:58:40;;;;;;;0.75;0.20;;;17.10;43.60;;;;;;5071067;28;20552;-76
2021/11/29 02:01:11;;;;;;;1.38;0.40;;;17.10;43.60;;;;;;5070796;28;20045;-76
2021/11/29 02:03:38;;;;;;;0.60;0.50;;;17.10;43.60;;;;;;5105027;28;20052;-76
2021/11/29 02:06:04;;;;;;;1.05;0.50;;;17.10;43.50;;;;;;5072871;28;20120;-76
2021/11/29 02:08:30;;;;;;;1.88;0.50;;;17.10;43.50;;;;;;5071141;28;20049;-76
2021/11/29 02:10:56;;;;;;;0.38;0.30;;;17.10;43.40;;;;;;5057252;28;20106;-76
2021/11/29 02:13:22;;;;;;;1.88;0.30;;;17.10;43.50;;;;;;5072186;28;20501;-76
2021/11/29 02:15:51;;;;;;;1.27;0.60;;;17.10;43.40;;;;;;5072302;28;20169;-76
2021/11/29 02:18:34;;;;;;;0.77;0.30;;;17.10;43.40;;;;;;5071987;28;20048;-76
2021/11/29 02:21:12;;;;;;;2.83;0.60;;;17.00;43.40;;;;;;5070270;28;20060;-77
2021/11/29 02:23:44;;;;;;;0.77;0.30;;;17.00;43.30;;;;;;5072111;28;20047;-76
2021/11/29 02:26:10;;;;;;;0.88;0.35;;;17.00;43.50;;;;;;5072368;28;20151;-76
2021/11/29 02:28:39;;;;;;;0.55;0.30;;;17.00;43.50;;;;;;5060100;28;20056;-76
2021/11/29 02:31:11;;;;;;;0.68;0.20;;;17.00;43.40;;;;;;5069933;28;20079;-77
2021/11/29 02:33:37;;;;;;;1.30;0.43;;;17.00;43.40;;;;;;5087599;28;20049;-76
2021/11/29 02:36:04;;;;;;;0.32;0.20;;;17.00;43.40;;;;;;5071018;28;20051;-76
2021/11/29 02:38:31;;;;;;;2.03;0.30;;;16.90;43.40;;;;;;5078338;28;20041;-76
2021/11/29 02:40:57;;;;;;;0.28;0.20;;;16.90;43.30;;;;;;5071026;28;20055;-76
2021/11/29 02:43:23;;;;;;;0.30;0.30;;;16.90;43.30;;;;;;5070255;28;20550;-76
2021/11/29 02:45:49;;;;;;;2.25;0.55;;;16.90;43.30;;;;;;5071652;28;20098;-76
2021/11/29 02:48:15;;;;;;;1.55;0.43;;;16.90;43.30;;;;;;5061997;28;20493;-77
2021/11/29 02:50:41;;;;;;;1.35;0.40;;;16.90;43.30;;;;;;5070292;28;20047;-76
2021/11/29 02:53:11;;;;;;;0.57;0.20;;;16.90;43.30;;;;;;5069328;28;20045;-76
2021/11/29 02:55:38;;;;;;;0.60;0.30;;;16.90;43.50;;;;;;5070284;28;20040;-76
2021/11/29 02:58:05;;;;;;;1.27;0.40;;;16.80;43.40;;;;;;5081079;28;20068;-76
2021/11/29 03:00:33;;;;;;;1.55;0.30;;;16.90;43.60;;;;;;5056292;28;20402;-76
2021/11/29 03:03:04;;;;;;;0.30;0.20;;;16.80;43.40;;;;;;5068935;28;20519;-77
2021/11/29 03:05:30;;;;;;;0.68;0.30;;;16.80;43.50;;;;;;5069931;28;20048;-77
2021/11/29 03:07:56;;;;;;;1.52;0.20;;;16.80;43.50;;;;;;5069831;28;20523;-77
2021/11/29 03:10:21;;;;;;;0.40;0.30;;;16.80;43.50;;;;;;5057979;28;20076;-76
2021/11/29 03:12:47;;;;;;;0.82;0.38;;;16.80;43.30;;;;;;5102910;28;20041;-77
2021/11/29 03:15:13;;;;;;;0.65;0.35;;;16.90;43.50;;;;;;5103045;28;20056;-77
2021/11/29 03:17:38;;;;;;;1.38;0.50;;;16.80;43.40;;;;;;5070811;28;20055;-76
2021/11/29 03:20:09;;;;;;;0.63;0.20;;;16.80;43.50;;;;;;5073231;28;20199;-77
2021/11/29 03:22:34;;;;;;;0.80;0.20;;;16.80;43.40;;;;;;5082962;28;20055;-76
2021/11/29 03:25:00;;;;;;;0.55;0.30;;;16.80;43.50;;;;;;5065794;28;20869;-77
2021/11/29 03:27:26;;;;;;;3.35;0.52;;;16.80;43.50;;;;;;5064389;28;20059;-77
2021/11/29 03:29:53;;;;;;;0.80;0.47;;;16.80;43.50;;;;;;5069768;28;20044;-77
2021/11/29 03:32:19;;;;;;;1.30;0.50;;;16.70;43.60;;;;;;5069255;28;20083;-76
2021/11/29 03:34:46;;;;;;;1.67;0.35;;;16.70;43.60;;;;;;5070781;28;20059;-76
2021/11/29 03:37:11;;;;;;;1.42;0.40;;;16.80;43.70;;;;;;5052330;28;20040;-76
2021/11/29 03:39:37;;;;;;;0.20;0.20;;;16.70;43.60;;;;;;5068876;28;20071;-76
2021/11/29 03:42:05;;;;;;;1.80;0.28;;;16.80;43.70;;;;;;5070461;28;20519;-77
2021/11/29 03:44:32;;;;;;;0.70;0.38;;;16.70;43.60;;;;;;5069233;28;20056;-76
2021/11/29 03:46:58;;;;;;;0.65;0.30;;;16.70;43.60;;;;;;5068866;28;20047;-76
2021/11/29 03:49:25;;;;;;;0.93;0.38;;;16.70;43.70;;;;;;5070099;28;20044;-76
2021/11/29 03:51:50;;;;;;;0.73;0.32;;;16.70;43.70;;;;;;5071193;28;20041;-77
2021/11/29 03:54:17;;;;;;;0.40;0.30;;;16.70;43.60;;;;;;5069718;28;20052;-77
2021/11/29 03:56:42;;;;;;;1.15;0.40;;;16.60;43.60;;;;;;5070280;28;20046;-77
2021/11/29 03:59:08;;;;;;;0.82;0.30;;;16.70;43.70;;;;;;5069616;28;20048;-77
2021/11/29 04:01:34;;;;;;;0.40;0.20;;;16.70;43.70;;;;;;5070393;28;20047;-77
2021/11/29 04:04:01;;;;;;;0.73;0.25;;;16.60;43.80;;;;;;5068611;28;20044;-77
2021/11/29 04:06:27;;;;;;;0.20;0.10;;;16.60;43.60;;;;;;5069018;28;20435;-77
2021/11/29 04:08:53;;;;;;;0.77;0.40;;;16.60;43.80;;;;;;5067680;28;20102;-77
2021/11/29 04:11:20;;;;;;;0.77;0.30;;;16.60;43.70;;;;;;5089805;28;20113;-77
2021/11/29 04:13:46;;;;;;;0.17;0.17;;;16.60;43.80;;;;;;5069666;28;20542;-77
2021/11/29 04:16:13;;;;;;;1.08;0.30;;;16.60;43.80;;;;;;5069249;28;20052;-77
2021/11/29 04:18:41;;;;;;;0.55;0.40;;;16.60;43.90;;;;;;5052579;28;20044;-77
2021/11/29 04:21:07;;;;;;;0.20;0.20;;;16.60;43.90;;;;;;5069157;28;20062;-77
2021/11/29 04:23:33;;;;;;;0.28;0.28;;;16.50;43.90;;;;;;5108716;27;20481;-76
2021/11/29 04:26:02;;;;;;;0.40;0.40;;;16.50;44.00;;;;;;5068272;28;20123;-76
2021/11/29 04:28:28;;;;;;;0.38;0.20;;;16.50;44.00;;;;;;5052230;28;20530;-77
2021/11/29 04:30:54;;;;;;;0.15;0.15;;;16.50;44.10;;;;;;5068383;28;20033;-77
2021/11/29 04:33:20;;;;;;;0.32;0.30;;;16.50;44.20;;;;;;5074440;28;20067;-77
2021/11/29 04:35:47;;;;;;;0.77;0.20;;;16.50;44.20;;;;;;5069691;28;20048;-77
2021/11/29 04:38:13;;;;;;;0.30;0.30;;;16.50;44.20;;;;;;5084268;28;20121;-77
2021/11/29 04:40:40;;;;;;;0.68;0.28;;;16.50;44.10;;;;;;5102353;28;20045;-77
2021/11/29 04:43:06;;;;;;;0.90;0.28;;;16.50;44.20;;;;;;5070608;28;20056;-77
2021/11/29 04:45:33;;;;;;;1.38;0.30;;;16.40;45.30;;;;;;5085423;28;20296;-77
2021/11/29 04:47:58;;;;;;;0.85;0.63;;;16.40;44.50;;;;;;5068503;28;20041;-77
2021/11/29 04:50:25;;;;;;;0.40;0.40;;;16.40;44.30;;;;;;5101644;28;20640;-77
2021/11/29 04:52:51;;;;;;;1.02;0.35;;;16.40;44.40;;;;;;5068427;28;20435;-77
2021/11/29 04:55:17;;;;;;;0.88;0.20;;;16.40;44.30;;;;;;5105016;28;20044;-77
2021/11/29 04:57:43;;;;;;;0.30;0.25;;;16.40;44.30;;;;;;5077292;28;20434;-77
2021/11/29 05:00:13;;;;;;;0.20;0.20;;;16.40;44.30;;;;;;5068799;28;20051;-77
2021/11/29 05:02:39;;;;;;;0.10;0.10;;;16.40;44.30;;;;;;5068964;28;20411;-77
2021/11/29 05:05:05;;;;;;;0.55;0.30;;;16.40;44.50;;;;;;5070096;28;20057;-77
2021/11/29 05:07:31;;;;;;;0.40;0.20;;;16.40;44.50;;;;;;5069327;28;20126;-77
2021/11/29 05:09:57;;;;;;;0.20;0.20;;;16.40;44.50;;;;;;5067094;28;20076;-77
2021/11/29 05:12:23;;;;;;;0.15;0.15;;;16.30;44.90;;;;;;5062940;28;20495;-74
2021/11/29 05:14:49;;;;;;;0.15;0.15;;;16.30;44.60;;;;;;5070627;28;20049;-75
2021/11/29 05:17:15;;;;;;;0.60;0.40;;;16.30;45.10;;;;;;5069954;28;20037;-74
2021/11/29 05:19:41;;;;;;;0.80;0.20;;;16.40;45.30;;;;;;5084328;28;20067;-75
2021/11/29 05:22:07;;;;;;;2.67;0.20;;;16.40;45.00;;;;;;5077104;28;20044;-76
2021/11/29 05:24:33;;;;;;;0.95;0.40;;;16.30;44.90;;;;;;5082059;28;20106;-75
2021/11/29 05:26:59;;;;;;;0.22;0.22;;;16.30;45.00;;;;;;5085734;28;20043;-75
2021/11/29 05:29:25;;;;;;;1.17;0.30;;;16.30;44.90;;;;;;5081860;28;20483;-75
2021/11/29 05:31:51;;;;;;;0.85;0.30;;;16.30;45.00;;;;;;5081013;28;20040;-75
2021/11/29 05:34:18;;;;;;;0.50;0.30;;;16.20;44.90;;;;;;5083935;28;20411;-75
2021/11/29 05:36:44;;;;;;;2.72;0.95;;;16.20;44.80;;;;;;5111650;28;20509;-75
2021/11/29 05:39:10;;;;;;;1.15;0.30;;;16.30;44.90;;;;;;5083412;28;20056;-76
2021/11/29 05:41:36;;;;;;;0.22;0.20;;;16.20;44.90;;;;;;5081843;28;20043;-75
2021/11/29 05:44:02;;;;;;;0.95;0.30;;;16.20;44.90;;;;;;5085595;28;20123;-75
2021/11/29 05:46:28;;;;;;;1.42;0.30;;;16.30;44.80;;;;;;5082676;28;20637;-75
2021/11/29 05:48:56;;;;;;;0.10;0.10;;;16.20;44.90;;;;;;5101866;28;20044;-75
2021/11/29 05:51:22;;;;;;;0.30;0.20;;;16.20;44.90;;;;;;5077623;28;20051;-75
2021/11/29 05:53:48;;;;;;;0.38;0.28;;;16.20;44.80;;;;;;5080412;28;20044;-75
2021/11/29 05:56:17;;;;;;;0.40;0.22;;;16.20;44.90;;;;;;5084286;28;20127;-75
2021/11/29 05:58:42;;;;;;;0.30;0.30;;;16.20;45.00;;;;;;5083095;28;20048;-75
2021/11/29 06:01:08;;;;;;;1.60;0.50;;;16.20;45.00;;;;;;5118370;27;20050;-75
2021/11/29 06:03:34;;;;;;;0.93;0.28;;;16.20;45.00;;;;;;5084167;28;20105;-75
2021/11/29 06:06:00;;;;;;;2.15;0.50;;;16.20;44.90;;;;;;5087437;28;20051;-75
2021/11/29 06:08:26;;;;;;;0.80;0.30;;;16.10;45.00;;;;;;5085956;28;20048;-75
2021/11/29 06:10:52;;;;;;;0.80;0.30;;;16.10;45.00;;;;;;5040801;28;20093;-75
2021/11/29 06:13:17;;;;;;;0.30;0.30;;;16.10;45.10;;;;;;5070372;28;20412;-75
2021/11/29 06:15:44;;;;;;;0.38;0.38;;;16.10;45.10;;;;;;5087737;28;20059;-75
2021/11/29 06:18:11;;;;;;;0.73;0.40;;;16.10;45.20;;;;;;5072057;28;20052;-75
2021/11/29 06:20:36;;;;;;;0.45;0.40;;;16.10;45.20;;;;;;5070377;28;20044;-75
2021/11/29 06:23:03;;;;;;;0.35;0.32;;;16.10;45.20;;;;;;5076398;28;20484;-75
2021/11/29 06:25:29;;;;;;;0.90;0.55;;;16.10;45.10;;;;;;5070299;28;20405;-75
2021/11/29 06:27:55;;;;;;;0.40;0.40;;;16.10;45.10;;;;;;5071700;28;20040;-75
2021/11/29 06:30:23;;;;;;;0.70;0.52;;;16.10;45.10;;;;;;5071228;28;20048;-75
2021/11/29 06:32:49;;;;;;;0.50;0.43;;;16.10;45.20;;;;;;5071619;28;20083;-75
2021/11/29 06:35:15;;;;;;;0.63;0.60;;;16.10;45.30;;;;;;5071350;28;20127;-76
2021/11/29 06:37:45;;;;;;;1.23;0.40;;;16.20;45.10;;;;;;5070466;28;20056;-75
2021/11/29 06:40:11;;;;;;;;;;;16.30;44.90;;;;;;5071762;28;20074;-75
2021/11/29 06:42:37;;;;;;;0.30;0.30;;;16.40;44.70;;;;;;5104139;28;19920;-75
2021/11/29 06:45:03;;;;;;;0.63;0.63;;;16.50;44.50;;;;;;5070264;28;20510;-75
2021/11/29 06:47:29;;;;;;;0.80;0.30;;;16.50;44.40;;;;;;5071078;28;20053;-76
2021/11/29 06:49:55;;;;;;;0.70;0.45;;;16.70;44.00;;;;;;5087262;28;20067;-75
2021/11/29 06:52:21;;;;;;;0.90;0.60;;;16.80;43.70;;;;;;5108759;27;20094;-75
2021/11/29 06:54:49;;;;;;;0.43;0.40;;;17.00;43.50;;;;;;5104222;28;20089;-75
2021/11/29 06:57:16;;;;;;;0.22;0.22;;;17.00;43.40;;;;;;5070051;28;20053;-75
2021/11/29 06:59:43;;;;;;;0.30;0.30;;;17.00;43.50;;;;;;5053610;28;20063;-75
2021/11/29 07:02:09;;;;;;;0.47;0.40;;;17.20;43.00;;;;;;5070602;28;20060;-75
2021/11/29 07:04:35;;;;;;;0.40;0.40;;;17.30;42.80;;;;;;5069774;28;20597;-74
2021/11/29 07:07:01;;;;;;;0.40;0.40;;;17.40;42.70;;;;;;5049948;28;20056;-75
2021/11/29 07:09:27;;;;;;;0.40;0.40;;;17.50;42.60;;;;;;5045516;28;20041;-75
2021/11/29 07:11:53;;;;;;;0.30;0.30;;;17.60;42.40;;;;;;5103739;28;20063;-75
2021/11/29 07:14:20;;;;;;;0.32;0.32;;;17.70;42.30;;;;;;5070232;28;20043;-76
2021/11/29 07:16:48;;;;;;;0.22;0.22;;;17.90;42.00;;;;;;5076696;28;20043;-75
2021/11/29 07:19:16;;;;;;;0.30;0.20;;;18.00;41.40;;;;;;5075492;28;20044;-75
2021/11/29 07:21:42;;;;;;;0.22;0.22;;;18.00;41.70;;;;;;5069486;28;20048;-75
2021/11/29 07:24:09;;;;;;;0.25;0.25;;;18.00;41.80;;;;;;5069449;28;20052;-75
2021/11/29 07:26:39;;;;;;;0.10;0.10;;;18.10;41.60;;;;;;5069074;28;20045;-74
2021/11/29 07:29:04;;;;;;;0.57;0.30;;;18.10;41.40;;;;;;5071769;28;20056;-75
2021/11/29 07:31:32;;;;;;;0.20;0.20;;;18.20;41.40;;;;;;5085807;28;20039;-75
2021/11/29 07:33:57;;;;;;;0.38;0.38;;;18.30;41.50;;;;;;5069303;28;20045;-75
2021/11/29 07:36:23;;;;;;;0.25;0.25;;;18.30;41.20;;;;;;5085765;28;20117;-75
2021/11/29 07:38:49;;;;;;;0.20;0.20;;;18.30;41.30;;;;;;5086988;28;20048;-75
2021/11/29 07:41:14;;;;;;;0.25;0.25;;;18.20;41.50;;;;;;5070329;28;20072;-75
2021/11/29 07:43:40;;;;;;;0.20;0.20;;;18.20;41.50;;;;;;5102676;28;20326;-75
2021/11/29 07:46:06;;;;;;;2.53;0.20;;;18.30;41.30;;;;;;5069316;28;20079;-75
2021/11/29 07:48:32;;;;;;;0.25;0.25;;;18.20;41.20;;;;;;5102351;28;20131;-75
2021/11/29 07:50:57;;;;;;;0.20;0.20;;;18.10;41.50;;;;;;5050439;28;20053;-75
2021/11/29 07:53:23;;;;;;;0.25;0.25;;;18.00;41.90;;;;;;5065731;28;20071;-75
2021/11/29 07:55:49;;;;;;;0.30;0.30;;;18.00;41.90;;;;;;5069133;28;20048;-75
2021/11/29 07:58:17;;;;;;;0.28;0.28;;;18.10;41.90;;;;;;5070005;28;20048;-75
2021/11/29 08:00:44;;;;;;;0.50;0.50;;;18.00;42.00;;;;;;5069211;28;20059;-76
2021/11/29 08:03:10;;;;;;;0.32;0.32;;;18.00;42.00;;;;;;5073119;28;20110;-76
2021/11/29 08:05:37;;;;;;;0.32;0.30;;;17.90;42.00;;;;;;5077832;28;20273;-76
2021/11/29 08:08:05;;;;;;;0.35;0.35;;;18.00;41.90;;;;;;5079504;28;20101;-76
2021/11/29 08:10:33;;;;;;;0.20;0.20;;;18.10;41.80;;;;;;5060112;28;20426;-76
2021/11/29 08:13:00;;;;;;;0.20;0.20;;;18.10;41.80;;;;;;5072555;28;20076;-75
2021/11/29 08:15:25;;;;;;;0.10;0.10;;;18.10;41.70;;;;;;5088427;28;20048;-76
2021/11/29 08:17:51;;;;;;;0.45;0.30;;;18.10;41.60;;;;;;5049407;28;20052;-76
2021/11/29 08:20:23;;;;;;;0.30;0.30;;;18.10;41.60;;;;;;5077987;28;20045;-76
2021/11/29 08:22:49;;;;;;;0.20;0.20;;;18.10;41.70;;;;;;5075675;28;20049;-76
2021/11/29 08:25:16;;;;;;;0.30;0.30;;;18.10;41.60;;;;;;5056344;28;20044;-76
2021/11/29 08:27:43;;;;;;;0.28;0.28;;;18.10;41.80;;;;;;5076715;28;20199;-75
2021/11/29 08:30:11;;;;;;;0.40;0.40;;;18.00;41.90;;;;;;5110617;27;20510;-76
2021/11/29 08:32:39;;;;;;;0.30;0.30;;;18.20;41.50;;;;;;5076320;28;20070;-75
2021/11/29 08:35:05;;;;;;;0.20;0.20;;;18.20;41.20;;;;;;5072930;28;20071;-77
2021/11/29 08:37:31;;;;;;;0.55;0.20;;;18.30;41.00;;;;;;5068819;28;20045;-76
2021/11/29 08:39:57;;;;;;;0.20;0.20;;;18.40;40.80;;;;;;5067972;28;20064;-75
2021/11/29 08:42:22;;;;;;;2.55;0.30;;;18.40;40.70;;;;;;5068773;28;20392;-77
2021/11/29 08:44:48;;;;;;;0.20;0.20;;;18.40;40.70;;;;;;5066015;28;20384;-76
2021/11/29 08:47:14;;;;;;;0.20;0.20;;;18.30;41.00;;;;;;5068611;28;20063;-74
2021/11/29 08:49:43;;;;;;;0.55;0.30;;;18.30;41.50;;;;;;5074008;28;20047;-74
2021/11/29 08:52:09;;;;;;;0.30;0.30;;;18.20;41.70;;;;;;5073706;28;20080;-75
2021/11/29 08:54:37;;;;;;;0.20;0.20;;;18.10;42.10;;;;;;5076947;28;20051;-76
2021/11/29 08:57:03;;;;;;;0.40;0.40;;;18.10;42.40;;;;;;5075717;28;20075;-77
2021/11/29 08:59:29;;;;;;;0.52;0.45;;;18.00;42.70;;;;;;5059236;28;20083;-78
2021/11/29 09:01:55;;;;;;;0.30;0.30;;;18.00;42.90;;;;;;5071230;28;20041;-79
2021/11/29 09:04:21;;;;;;;0.30;0.30;;;18.00;43.10;;;;;;5075753;28;20126;-79
2021/11/29 09:06:47;;;;;;;0.68;0.63;;;17.90;43.70;;;;;;5072615;28;20151;-79
2021/11/29 09:09:14;;;;;;;1.05;0.40;;;17.90;43.80;;;;;;5064674;28;20151;-78
2021/11/29 09:11:40;;;;;;;1.25;0.40;;;17.90;43.80;;;;;;5068031;28;20041;-78
2021/11/29 09:14:06;;;;;;;0.50;0.43;;;17.90;43.90;;;;;;5068407;28;20101;-79
2021/11/29 09:16:32;;;;;;;0.75;0.40;;;17.80;44.10;;;;;;5067983;28;20438;-79
2021/11/29 09:18:57;;;;;;;0.75;0.68;;;17.80;44.10;;;;;;5066775;28;20040;-79
2021/11/29 09:21:25;;;;;;;3.25;0.57;;;17.80;44.50;;;;;;5069747;28;20097;-79
2021/11/29 09:23:51;;;;;;;0.45;0.45;;;17.80;45.10;;;;;;5069162;28;20048;-79
2021/11/29 09:26:16;;;;;;;1.55;0.60;;;17.70;45.30;;;;;;5070086;28;20114;-78
2021/11/29 09:28:42;;;;;;;0.73;0.68;;;17.70;45.40;;;;;;5069719;28;20044;-79
2021/11/29 09:31:10;;;;;;;1.63;0.60;;;17.70;45.40;;;;;;5089377;28;20677;-78
2021/11/29 09:33:37;;;;;;;1.55;0.70;;;17.60;45.40;;;;;;5074227;28;20048;-79
2021/11/29 09:36:04;;;;;;;4.03;0.70;;;17.60;45.50;;;;;;5072891;28;20048;-79
2021/11/29 09:38:31;;;;;;;0.57;0.57;;;17.50;45.60;;;;;;5074325;28;20053;-78
2021/11/29 09:40:57;;;;;;;2.35;0.77;;;17.50;45.60;;;;;;5082786;28;20067;-77
2021/11/29 09:43:23;;;;;;;13.48;0.75;;;17.60;45.70;;;;;;5079026;28;20461;-77
2021/11/29 09:45:51;;;;;;;0.57;0.50;;;17.50;45.70;;;;;;5069907;28;20519;-77
2021/11/29 09:48:17;;;;;;;2.40;0.60;;;17.50;45.80;;;;;;5072340;28;20098;-77
2021/11/29 09:50:46;;;;;;;1.42;0.60;;;17.50;45.90;;;;;;5070875;28;20044;-77
2021/11/29 09:53:15;;;;;;;3.10;0.57;;;17.40;45.80;;;;;;5073331;28;20048;-77
2021/11/29 09:55:42;;;;;;;1.17;0.60;;;17.50;45.90;;;;;;5071144;28;20484;-77
2021/11/29 09:58:08;;;;;;;3.22;0.60;;;17.50;46.10;;;;;;5075792;28;20052;-77
2021/11/29 10:00:40;;;;;;;4.25;1.80;;;17.50;46.00;;;;;;5077379;28;20175;-78
2021/11/29 10:03:07;;;;;;;4.53;1.10;;;17.50;47.80;;;;;;5071834;28;20044;-77
2021/11/29 10:05:35;;;;;;;3.92;1.13;;;17.40;47.70;;;;;;5070754;28;20123;-79
2021/11/29 10:08:29;;;;;;;10.88;1.02;;;17.50;47.40;;;;;;5070040;28;20052;-79
2021/11/29 10:11:07;;;;;;;4.72;0.70;;;17.40;47.20;;;;;;5072478;28;20469;-79
2021/11/29 10:13:56;;;;;;;4.78;1.05;;;17.40;47.10;;;;;;5077786;28;20059;-79
2021/11/29 10:16:46;;;;;;;4.97;0.82;;;17.50;47.00;;;;;;5076676;28;20127;-79
2021/11/29 10:19:35;;;;;;;4.15;1.00;;;17.50;46.90;;;;;;5087643;28;20472;-79
2021/11/29 10:22:20;;;;;;;3.13;0.90;;;17.60;46.80;;;;;;5071893;28;20072;-79
2021/11/29 10:24:49;;;;;;;7.53;0.90;;;17.60;46.30;;;;;;5074961;28;20044;-79
2021/11/29 10:27:17;;;;;;;7.35;1.60;;;17.70;46.00;;;;;;5090445;28;20040;-79
2021/11/29 10:29:50;;;;;;;6.70;0.98;;;17.70;45.60;;;;;;5087830;28;20498;-79
2021/11/29 10:32:32;;;;;;;4.43;1.00;;;17.80;45.30;;;;;;5082015;28;20044;-79
2021/11/29 10:34:58;;;;;;;1.98;0.80;;;17.80;45.40;;;;;;5086622;28;20040;-79
2021/11/29 10:37:29;;;;;;;5.28;1.25;;;17.80;45.50;;;;;;5090143;28;20341;-80
2021/11/29 10:39:55;;;;;;;12.15;1.20;;;17.90;45.50;;;;;;5072158;28;20879;-84
2021/11/29 10:42:25;;;;;;;4.03;1.25;;;17.90;45.30;;;;;;5072507;28;20044;-78
2021/11/29 10:44:53;;;;;;;;;;;17.80;45.80;;;;;;5068820;28;20133;-82
2021/11/29 10:47:22;;;;;;;9.35;1.20;;;17.80;45.50;;;;;;5069392;28;19927;-79
2021/11/29 10:49:54;;;;;;;8.00;1.17;;;17.90;45.60;;;;;;5069894;28;20041;-77
2021/11/29 10:52:25;;;;;;;3.45;0.88;;;17.90;45.20;;;;;;5071121;28;20044;-79
2021/11/29 10:54:54;;;;;;;3.17;1.00;;;17.80;44.80;;;;;;5068407;28;20052;-79
2021/11/29 10:57:21;;;;;;;12.68;1.10;;;17.80;44.60;;;;;;5063033;28;20041;-81
2021/11/29 10:59:49;;;;;;;4.80;1.10;;;17.70;44.80;;;;;;5061656;28;20044;-74
2021/11/29 11:02:21;;;;;;;6.47;2.55;;;17.80;44.90;;;;;;5068909;28;20036;-72
2021/11/29 11:04:59;;;;;;;4.07;0.90;;;17.90;44.70;;;;;;5068814;28;20041;-74
2021/11/29 11:07:26;;;;;;;6.95;1.02;;;17.90;45.10;;;;;;5088976;28;20502;-74
2021/11/29 11:09:57;;;;;;;5.68;1.02;;;17.90;45.10;;;;;;5069637;28;20485;-74
2021/11/29 11:12:29;;;;;;;10.07;1.05;;;18.00;45.20;;;;;;5061151;28;20043;-74
2021/11/29 11:15:00;;;;;;;6.40;1.20;;;18.10;46.40;;;;;;5068441;28;20037;-74
2021/11/29 11:17:28;;;;;;;1.77;0.75;;;18.20;45.10;;;;;;5068541;28;20044;-74
2021/11/29 11:20:09;;;;;;;8.93;0.75;;;18.30;45.10;;;;;;5081185;28;20032;-73
2021/11/29 11:22:38;;;;;;;1.58;0.82;;;18.30;44.90;;;;;;5068703;28;20392;-73
2021/11/29 11:25:10;;;;;;;3.15;0.80;;;18.40;44.60;;;;;;5064406;28;20056;-73
2021/11/29 11:27:42;;;;;;;7.72;0.70;;;18.50;44.20;;;;;;5066447;28;20041;-73
2021/11/29 11:30:16;;;;;;;4.10;0.85;;;18.50;44.10;;;;;;5066323;28;21018;-73
2021/11/29 11:32:54;;;;;;;5.43;0.90;;;18.50;44.00;;;;;;5067456;28;20048;-74
2021/11/29 11:35:32;;;;;;;4.20;0.80;;;18.50;44.10;;;;;;5070734;28;20070;-73
2021/11/29 11:38:10;;;;;;;3.53;1.63;;;18.50;44.20;;;;;;5067614;28;20056;-73
2021/11/29 11:40:39;;;;;;;9.13;1.38;;;18.40;44.80;;;;;;5084587;28;20048;-73
2021/11/29 11:43:08;;;;;;;2.83;0.90;;;18.50;45.80;;;;;;5081745;28;20052;-74
2021/11/29 11:45:36;;;;;;;6.70;0.80;;;18.50;46.60;;;;;;5086345;28;20060;-73
2021/11/29 11:48:02;;;;;;;4.03;0.90;;;18.40;48.00;;;;;;5058758;28;20061;-73
2021/11/29 11:50:33;;;;;;;2.92;0.77;;;18.40;46.80;;;;;;5066925;28;20120;-73
2021/11/29 11:53:00;;;;;;;3.38;0.60;;;18.40;46.80;;;;;;5068463;28;20487;-73
2021/11/29 11:55:32;;;;;;;1.95;0.77;;;18.30;46.90;;;;;;5066290;28;20044;-73
2021/11/29 11:58:01;;;;;;;2.60;0.75;;;18.30;46.90;;;;;;5069875;28;20064;-73
2021/11/29 12:00:30;;;;;;;2.72;0.93;;;18.30;48.00;;;;;;5062667;28;20386;-73
2021/11/29 12:03:11;;;;;;;5.55;0.95;;;18.40;46.80;;;;;;5063971;28;20048;-73
2021/11/29 12:05:44;;;;;;;6.03;1.00;;;18.30;46.80;;;;;;5068796;28;20135;-74
2021/11/29 12:08:32;;;;;;;9.63;1.20;;;18.40;46.90;;;;;;5075407;28;20476;-73
2021/11/29 12:10:58;;;;;;;5.40;1.02;;;18.40;46.80;;;;;;5085506;28;20129;-73
2021/11/29 12:13:25;;;;;;;7.03;1.25;;;18.40;46.50;;;;;;5065970;28;20040;-74
2021/11/29 12:15:56;;;;;;;8.82;1.10;;;18.40;46.70;;;;;;5065417;28;20048;-75
2021/11/29 12:18:40;;;;;;;5.72;1.42;;;18.50;46.80;;;;;;5067867;28;20040;-74
2021/11/29 12:21:17;;;;;;;3.25;1.00;;;18.40;46.70;;;;;;5065304;28;20049;-74
2021/11/29 12:24:07;;;;;;;5.50;1.40;;;18.40;46.90;;;;;;5065179;28;20048;-73
2021/11/29 12:26:45;;;;;;;14.63;1.23;;;18.50;47.00;;;;;;5064315;28;20048;-73
2021/11/29 12:29:34;;;;;;;2.78;1.13;;;18.50;47.20;;;;;;5069696;28;20539;-73
2021/11/29 12:32:02;;;;;;;10.77;1.30;;;18.50;47.00;;;;;;5063162;28;20155;-72
2021/11/29 12:34:50;;;;;;;3.08;1.10;;;18.50;46.70;;;;;;5068593;28;20041;-73
2021/11/29 12:37:26;;;;;;;3.47;1.00;;;18.50;46.40;;;;;;5068278;28;20055;-73
2021/11/29 12:39:55;;;;;;;7.38;1.05;;;18.50;46.40;;;;;;5067317;28;20048;-73
2021/11/29 12:42:26;;;;;;;5.43;1.23;;;18.50;46.20;;;;;;5065198;28;20063;-73
2021/11/29 12:45:09;;;;;;;4.70;0.98;;;18.50;46.00;;;;;;5063836;28;20051;-72
2021/11/29 12:48:00;;;;;;;7.95;1.40;;;18.50;45.90;;;;;;5060949;28;20396;-72
2021/11/29 12:50:52;;;;;;;4.38;1.25;;;18.50;46.00;;;;;;5061680;28;20444;-72
2021/11/29 12:53:38;;;;;;;10.90;1.55;;;18.50;45.80;;;;;;5068885;28;20055;-72